JP Observations

RJOI 200755Z 00000KT 9999 FEW030 BKN150 BKN240 16/11 A3000 RMK SLP157 WND DATA ESTD T01560106 RJTY 200756Z AUTO 18010KT 10SM CLR 18/M04 A3006 RMK AO2 SLP184 T01831038 FZRANO $ RODN 200756Z AUTO 16008KT 10SM BKN026 23/17 A2993 RMK AO2 SLP142 T02320172 $